Eagletown, Oklahoma
Current Conditions -  °F | °C
As of 6:53 AM on Thursday 23 Oct 2014 (Local Time) from KDEQ Reporting Station
Clear Clear  
Wind Chill: 53°   Ceiling: Unl
Heat Index: 53°   Visibility: 9mi
Dew Point: 51°   Wind: 0mph
Humidity: 93%   Direction: NA
Pressure: 30.16"   Gusts: NA
Location:  34.03°N, 94.58°W
Report Text: KDEQ 231153Z AUTO 00000KT 9SM CLR 12/11 A3016 RMK AO2 SLP209 T01170106 10133 20117 53005
Loading
Personal Weather Stations






























Interactive Weather Map
Tropical Storm Tracking
New forecast layout! Learn more

10-Day Weather Forecast

Advertisements
Track Severe Weather on mobile